Stations météo

réclame
Mon MeteoGroup
Scatsta, Grande-Bretagne (3006): Température de l'air & dewpoint: 19.01.2020 06:00:00 - 25.01.2020 06:00:00 (GMT)Scatsta, Grande-Bretagne (3006): Vitesse du vent: 19.01.2020 06:00:00 - 25.01.2020 06:00:00 (GMT)Scatsta, Grande-Bretagne (3006): Direction du vent: 19.01.2020 06:00:00 - 25.01.2020 06:00:00 (GMT)Scatsta, Grande-Bretagne (3006): visibility: 19.01.2020 06:00:00 - 25.01.2020 06:00:00 (GMT)
Date & Time tt [°C] td [°C] ff [km/h] ff [knt] dd vv [km]
25.01.2020 06:00:00 8,0 6,0 41 22 SW 10
25.01.2020 05:00:00 8,0 6,0 34 18 SW 10
25.01.2020 04:00:00 8,0 7,0 29 16 SSW 10
25.01.2020 03:00:00 7,0 6,0 39 21 SSW 10
25.01.2020 02:00:00 7,0 6,0 34 18 SSW 4,6
25.01.2020 01:00:00 6,0 6,0 26 14 SSW 9
25.01.2020 00:00:00 6,0 5,0 16 9 SSW 10
24.01.2020 23:00:00 6,0 4,0 21 11 SSW 10
24.01.2020 22:00:00 5,0 4,0 15 8 SSW 10
24.01.2020 21:00:00 6,0 3,0 21 11 WSW 10
24.01.2020 20:00:00 6,0 3,0 21 11 WSW 10
24.01.2020 19:00:00 5,0 3,0 22 12 W 10
24.01.2020 18:00:00 5,0 3,0 15 8 W 10
24.01.2020 17:00:00 5,0 3,0 16 9 W 10
24.01.2020 16:00:00 6,0 1,0 26 14 W 10
24.01.2020 15:00:00 5,0 2,0 29 16 W 10
24.01.2020 14:00:00 5,0 2,0 35 19 W 10
24.01.2020 13:00:00 6,0 2,0 34 18 W 10
24.01.2020 12:00:00 6,0 1,0 34 18 W 10
24.01.2020 11:00:00 5,0 2,0 42 23 W 10
24.01.2020 10:00:00 6,0 1,0 35 19 W 10
24.01.2020 09:00:00 6,0 0,0 42 23 W 10
24.01.2020 08:00:00 5,0 2,0 34 18 W 10
24.01.2020 07:00:00 5,0 2,0 39 21 W 10
24.01.2020 06:00:00 5,0 2,0 41 22 W 10
24.01.2020 05:00:00 6,0 1,0 42 23 W 10
24.01.2020 04:00:00 5,0 2,0 44 24 W 10
24.01.2020 03:00:00 6,0 3,0 44 24 W 10
24.01.2020 02:00:00 6,0 2,0 41 22 W 10
24.01.2020 01:00:00 6,0 2,0 35 19 W 10
24.01.2020 00:00:00 6,0 2,0 39 21 WSW 10
23.01.2020 23:00:00 5,0 2,0 28 15 W 10
23.01.2020 22:00:00 6,0 3,0 34 18 W 10
23.01.2020 21:00:00 6,0 3,0 31 17 W 10
23.01.2020 20:00:00 6,0 3,0 31 17 W 4,3
23.01.2020 19:00:00 6,0 4,0 34 18 W 10
23.01.2020 18:00:00 7,0 4,0 37 20 W 10
23.01.2020 17:00:00 7,0 4,0 42 23 W 10
23.01.2020 16:00:00 7,0 5,0 41 22 W 10
23.01.2020 15:00:00 7,0 5,0 39 21 W 10
23.01.2020 14:00:00 8,0 5,0 42 23 WSW 10
23.01.2020 13:00:00 8,0 7,0 37 20 WSW 10
23.01.2020 12:00:00 8,0 7,0 26 14 W 10
23.01.2020 11:00:00 9,0 8,0 54 29 WSW 6
23.01.2020 10:00:00 9,0 8,0 57 31 WSW 5
23.01.2020 09:00:00 9,0 8,0 54 29 WSW 6
23.01.2020 08:00:00 9,0 8,0 55 30 WSW 10
23.01.2020 07:00:00 9,0 8,0 48 26 WSW 10
23.01.2020 06:00:00 9,0 7,0 54 29 WSW 10
23.01.2020 05:00:00 9,0 7,0 52 28 WSW 10
23.01.2020 04:00:00 9,0 7,0 50 27 WSW 10
23.01.2020 03:00:00 9,0 7,0 50 27 WSW 10
23.01.2020 02:00:00 9,0 7,0 54 29 WSW 10
23.01.2020 01:00:00 9,0 7,0 52 28 WSW 10
23.01.2020 00:00:00 8,0 7,0 48 26 WSW 10
22.01.2020 23:00:00 8,0 7,0 52 28 WSW 10
22.01.2020 22:00:00 8,0 7,0 46 25 WSW 10
22.01.2020 21:00:00 9,0 7,0 46 25 WSW 10
22.01.2020 20:00:00 9,0 8,0 46 25 WSW 4,0
22.01.2020 19:00:00 9,0 8,0 41 22 WSW 10
22.01.2020 18:00:00 9,0 8,0 28 15 SW 8
22.01.2020 17:00:00 9,0 8,0 24 13 SW 6
22.01.2020 16:00:00 8,0 8,0 21 11 SW 4,0
22.01.2020 15:00:00 8,0 8,0 28 15 WSW 5
22.01.2020 14:00:00 8,0 8,0 24 13 SSW 2,0
22.01.2020 13:00:00 8,0 7,0 24 13 SSW 3,0
22.01.2020 12:00:00 8,0 6,0 22 12 SSW 4,0
22.01.2020 11:00:00 8,0 5,0 18 10 S 10
22.01.2020 10:00:00 6,0 4,0 9 5 S 10
22.01.2020 09:00:00 6,0 3,0 15 8 S 10
22.01.2020 08:00:00 5,0 3,0 9 5 SW 10
22.01.2020 07:00:00 4,0 3,0 11 6 SSW 10
22.01.2020 06:00:00 3,0 2,0 4 2 - 10
22.01.2020 05:00:00 3,0 2,0 9 5 WSW 10
22.01.2020 04:00:00 6,0 4,0 9 5 WSW 10
22.01.2020 03:00:00 6,0 4,0 5 3 W 10
22.01.2020 02:00:00 4,0 3,0 11 6 WSW 10
22.01.2020 01:00:00 6,0 4,0 13 7 W 10
22.01.2020 00:00:00 7,0 4,0 16 9 W 10
21.01.2020 23:00:00 6,0 4,0 13 7 W 10
21.01.2020 22:00:00 6,0 4,0 13 7 WSW 10
21.01.2020 21:00:00 7,0 4,0 13 7 W 10
21.01.2020 20:00:00 7,0 3,0 22 12 W 10
21.01.2020 19:00:00 6,0 3,0 22 12 W 10
21.01.2020 18:00:00 7,0 3,0 28 15 W 10
21.01.2020 17:00:00 7,0 3,0 22 12 W 10
21.01.2020 16:00:00 - - - - - -
21.01.2020 15:00:00 6,0 4,0 28 15 W 10
21.01.2020 14:00:00 7,0 2,0 28 15 W 10
21.01.2020 13:00:00 6,0 3,0 28 15 W 10
21.01.2020 12:00:00 7,0 2,0 28 15 W 10
21.01.2020 11:00:00 7,0 1,0 26 14 W 10
21.01.2020 10:00:00 7,0 2,0 29 16 W 10
21.01.2020 09:00:00 6,0 0,0 28 15 W 10
21.01.2020 08:00:00 6,0 2,0 24 13 W 10
21.01.2020 07:00:00 6,0 1,0 21 11 WNW 10
21.01.2020 06:00:00 6,0 2,0 18 10 W 10
21.01.2020 05:00:00 6,0 0,0 18 10 W 10
21.01.2020 04:00:00 6,0 2,0 34 18 WNW 10
21.01.2020 03:00:00 7,0 3,0 26 14 W 10
21.01.2020 02:00:00 6,0 5,0 18 10 W 10
21.01.2020 01:00:00 7,0 5,0 21 11 WNW 10
21.01.2020 00:00:00 8,0 7,0 26 14 W 10
20.01.2020 23:00:00 8,0 7,0 29 16 WNW 6
20.01.2020 22:00:00 8,0 8,0 26 14 W 2,6
20.01.2020 21:00:00 9,0 9,0 57 31 WSW 8
20.01.2020 20:00:00 10,0 9,0 54 29 WSW 10
20.01.2020 19:00:00 10,0 9,0 59 32 WSW 10
20.01.2020 18:00:00 10,0 8,0 61 33 WSW 10
20.01.2020 17:00:00 10,0 8,0 63 34 WSW 10
20.01.2020 16:00:00 10,0 8,0 63 34 WSW 9
20.01.2020 15:00:00 10,0 8,0 67 36 WSW 9
20.01.2020 14:00:00 10,0 8,0 67 36 WSW 9
20.01.2020 13:00:00 9,0 8,0 65 35 WSW 9
20.01.2020 12:00:00 9,0 8,0 63 34 WSW 8
20.01.2020 11:00:00 9,0 8,0 55 30 SW 9
20.01.2020 10:00:00 9,0 8,0 52 28 SW 8
20.01.2020 09:00:00 10,0 8,0 52 28 SW 7
20.01.2020 08:00:00 9,0 8,0 57 31 SW 9
20.01.2020 07:00:00 9,0 8,0 55 30 SW 10
20.01.2020 06:00:00 9,0 8,0 52 28 WSW 9
20.01.2020 05:00:00 9,0 8,0 52 28 WSW 10
20.01.2020 04:00:00 9,0 8,0 57 31 WSW 10
20.01.2020 03:00:00 10,0 8,0 57 31 WSW 10
20.01.2020 02:00:00 9,0 8,0 55 30 WSW 10
20.01.2020 01:00:00 9,0 8,0 59 32 WSW 10
20.01.2020 00:00:00 9,0 8,0 57 31 WSW 10
19.01.2020 23:00:00 9,0 8,0 55 30 WSW 9
19.01.2020 22:00:00 9,0 8,0 55 30 WSW 6
19.01.2020 21:00:00 9,0 8,0 57 31 WSW 6
19.01.2020 20:00:00 9,0 8,0 59 32 WSW 8
19.01.2020 19:00:00 9,0 7,0 57 31 SW 5
19.01.2020 18:00:00 8,0 7,0 61 33 WSW 6
19.01.2020 17:00:00 8,0 7,0 48 26 SW 6
19.01.2020 16:00:00 9,0 6,0 57 31 SW 10
19.01.2020 15:00:00 8,0 6,0 42 23 SW 10
19.01.2020 14:00:00 7,0 5,0 37 20 SW 10
19.01.2020 13:00:00 8,0 5,0 41 22 SW 10
19.01.2020 12:00:00 8,0 5,0 31 17 SW 10
19.01.2020 11:00:00 7,0 5,0 31 17 SW 10
19.01.2020 10:00:00 8,0 5,0 29 16 SW 10
19.01.2020 09:00:00 7,0 5,0 26 14 WSW 10
19.01.2020 08:00:00 7,0 4,0 24 13 WSW 10
19.01.2020 07:00:00 6,0 4,0 15 8 W 10
19.01.2020 06:00:00 6,0 4,0 21 11 WNW 10

tt = Température de l'air
td = dewpoint
ff = Vitesse du vent
dd = Direction du vent
vv = visibility

stations d'obs. à proximité